Time,TemperatureF,DewpointF,PressureIn,WindDirection,WindDirectionDegrees,WindSpeedMPH,WindSpeedGustMPH,Humidity,HourlyPrecipIn,Conditions,Clouds,dailyrainin,SoftwareType,DateUTC
2013-12-09 00:05:00,62.4,55.8,29.89,West,271,0.0,0.0,79,0.00,,,0.00,Wunderground v.1.15,2013-12-08 13:05:00,
2013-12-09 00:10:00,62.6,56.0,29.89,North,-999,0.0,0.0,79,0.00,,,-99.99,WeatherLink 5.9.3,2013-12-08 13:10:00,
2013-12-09 00:16:00,62.5,56.2,29.89,West,270,0.0,0.0,80,0.00,,,0.00,Wunderground v.1.15,2013-12-08 13:16:00,
2013-12-09 00:22:00,62.4,56.1,29.89,West,271,0.0,0.0,80,0.00,,,0.00,Wunderground v.1.15,2013-12-08 13:22:00,
2013-12-09 00:27:00,62.2,56.0,29.88,West,270,0.0,0.0,80,0.00,,,0.00,Wunderground v.1.15,2013-12-08 13:27:00,
2013-12-09 00:40:00,62.4,56.1,29.88,North,-999,0.0,0.0,80,0.00,,,-99.99,WeatherLink 5.9.3,2013-12-08 13:40:00,
2013-12-09 00:46:00,61.8,55.9,29.88,West,270,0.0,0.0,81,0.00,,,0.00,Wunderground v.1.15,2013-12-08 13:46:00,
2013-12-09 01:00:00,62.1,55.9,29.88,North,-999,0.0,0.0,80,0.00,,,-99.99,WeatherLink 5.9.3,2013-12-08 14:00:00,
2013-12-09 01:06:00,61.0,55.1,29.87,West,271,0.0,0.0,81,0.00,,,0.00,Wunderground v.1.15,2013-12-08 14:06:00,
2013-12-09 01:11:00,60.7,54.8,29.87,West,270,0.0,0.0,81,0.00,,,0.00,Wunderground v.1.15,2013-12-08 14:11:00,
2013-12-09 01:16:00,60.5,54.6,29.87,West,270,0.0,0.0,81,0.00,,,0.00,Wunderground v.1.15,2013-12-08 14:16:00,
2013-12-09 01:22:00,60.3,55.1,29.87,West,271,0.0,0.0,83,0.00,,,0.00,Wunderground v.1.15,2013-12-08 14:22:00,
2013-12-09 01:27:00,60.1,54.9,29.86,West,270,0.0,0.0,83,0.00,,,0.00,Wunderground v.1.15,2013-12-08 14:27:00,
2013-12-09 01:33:00,59.8,54.6,29.86,West,270,0.0,0.0,83,0.00,,,0.00,Wunderground v.1.15,2013-12-08 14:33:00,
2013-12-09 01:38:00,59.6,54.8,29.86,West,270,0.0,0.0,84,0.00,,,0.00,Wunderground v.1.15,2013-12-08 14:38:00,
2013-12-09 01:44:00,59.4,54.9,29.86,West,271,0.0,0.0,85,0.00,,,0.00,Wunderground v.1.15,2013-12-08 14:44:00,
2013-12-09 01:50:00,59.5,55.0,29.86,North,-999,0.0,0.0,85,0.00,,,-99.99,WeatherLink 5.9.3,2013-12-08 14:50:00,
2013-12-09 01:56:00,59.2,55.0,29.85,West,270,0.0,0.0,86,0.00,,,0.00,Wunderground v.1.15,2013-12-08 14:56:00,
2013-12-09 02:02:00,59.1,54.9,29.85,West,270,0.0,0.0,86,0.00,,,0.00,Wunderground v.1.15,2013-12-08 15:02:00,
2013-12-09 02:07:00,59.1,54.9,29.85,West,270,0.0,0.0,86,0.00,,,0.00,Wunderground v.1.15,2013-12-08 15:07:00,
2013-12-09 02:20:00,59.2,55.0,29.85,North,-999,0.0,0.0,86,0.00,,,-99.99,WeatherLink 5.9.3,2013-12-08 15:20:00,
2013-12-09 02:26:00,59.3,55.4,29.84,West,271,0.0,0.0,87,0.00,,,0.00,Wunderground v.1.15,2013-12-08 15:26:00,
2013-12-09 02:31:00,59.2,55.0,29.84,West,270,0.0,0.0,86,0.00,,,0.00,Wunderground v.1.15,2013-12-08 15:31:00,
2013-12-09 02:36:00,59.1,54.9,29.84,West,270,0.0,0.0,86,0.00,,,0.00,Wunderground v.1.15,2013-12-08 15:36:00,
2013-12-09 02:42:00,58.8,54.6,29.85,West,270,0.0,0.0,86,0.00,,,0.00,Wunderground v.1.15,2013-12-08 15:42:00,
2013-12-09 02:47:00,58.8,54.9,29.84,West,270,0.0,0.0,87,0.00,,,0.00,Wunderground v.1.15,2013-12-08 15:47:00,
2013-12-09 02:53:00,58.8,54.9,29.84,West,270,0.0,0.0,87,0.00,,,0.00,Wunderground v.1.15,2013-12-08 15:53:00,
2013-12-09 02:58:00,58.8,54.9,29.84,West,270,0.0,0.0,87,0.00,,,0.00,Wunderground v.1.15,2013-12-08 15:58:00,
2013-12-09 03:04:00,58.6,54.7,29.84,West,270,0.0,0.0,87,0.00,,,0.00,Wunderground v.1.15,2013-12-08 16:04:00,
2013-12-09 03:09:00,58.5,54.6,29.84,West,270,0.0,0.0,87,0.00,,,0.00,Wunderground v.1.15,2013-12-08 16:09:00,
2013-12-09 03:14:00,58.5,55.0,29.83,West,270,0.0,0.0,88,0.00,,,0.00,Wunderground v.1.15,2013-12-08 16:14:00,
2013-12-09 03:20:00,58.4,54.5,29.83,North,-999,0.0,0.0,87,0.00,,,-99.99,WeatherLink 5.9.3,2013-12-08 16:20:00,
2013-12-09 03:26:00,58.7,55.2,29.83,West,270,0.0,0.0,88,0.00,,,0.00,Wunderground v.1.15,2013-12-08 16:26:00,
2013-12-09 03:32:00,58.6,55.1,29.83,West,270,0.0,0.0,88,0.00,,,0.00,Wunderground v.1.15,2013-12-08 16:32:00,
2013-12-09 03:37:00,58.6,55.1,29.83,West,270,0.0,0.0,88,0.00,,,0.00,Wunderground v.1.15,2013-12-08 16:37:00,
2013-12-09 03:42:00,58.4,54.9,29.83,West,270,0.0,0.0,88,0.00,,,0.00,Wunderground v.1.15,2013-12-08 16:42:00,
2013-12-09 03:48:00,58.3,54.8,29.84,West,270,0.0,0.0,88,0.00,,,0.00,Wunderground v.1.15,2013-12-08 16:48:00,
2013-12-09 03:53:00,58.2,54.7,29.84,West,270,0.0,0.0,88,0.00,,,0.00,Wunderground v.1.15,2013-12-08 16:53:00,
2013-12-09 03:59:00,57.8,54.3,29.84,West,270,0.0,0.0,88,0.00,,,0.00,Wunderground v.1.15,2013-12-08 16:59:00,
2013-12-09 04:11:00,58.2,54.7,29.84,North,-999,0.0,0.0,88,0.00,,,-99.99,WeatherLink 5.9.3,2013-12-08 17:11:00,
2013-12-09 04:16:00,57.9,55.0,29.83,West,270,0.0,0.0,90,0.00,,,0.00,Wunderground v.1.15,2013-12-08 17:16:00,
2013-12-09 04:21:00,57.8,54.9,29.83,West,271,0.0,0.0,90,0.00,,,0.00,Wunderground v.1.15,2013-12-08 17:21:00,
2013-12-09 04:26:00,57.7,54.8,29.82,West,270,0.0,0.0,90,0.00,,,0.00,Wunderground v.1.15,2013-12-08 17:26:00,
2013-12-09 04:32:00,57.6,54.7,29.83,West,270,0.0,0.0,90,0.00,,,0.00,Wunderground v.1.15,2013-12-08 17:32:00,
2013-12-09 04:37:00,57.4,54.5,29.83,West,270,0.0,0.0,90,0.00,,,0.00,Wunderground v.1.15,2013-12-08 17:37:00,
2013-12-09 04:43:00,57.4,54.5,29.83,West,270,0.0,0.0,90,0.00,,,0.00,Wunderground v.1.15,2013-12-08 17:43:00,
2013-12-09 04:48:00,57.5,54.9,29.83,West,270,0.0,0.0,91,0.00,,,0.00,Wunderground v.1.15,2013-12-08 17:48:00,
2013-12-09 04:54:00,57.5,54.9,29.83,West,271,0.0,0.0,91,0.00,,,0.00,Wunderground v.1.15,2013-12-08 17:54:00,
2013-12-09 04:59:00,57.5,54.9,29.83,West,270,0.0,0.0,91,0.00,,,0.00,Wunderground v.1.15,2013-12-08 17:59:00,
2013-12-09 05:04:00,57.6,55.0,29.83,West,270,0.0,0.0,91,0.00,,,0.00,Wunderground v.1.15,2013-12-08 18:04:00,
2013-12-09 05:10:00,57.5,54.9,29.83,North,-999,0.0,0.0,91,0.00,,,-99.99,WeatherLink 5.9.3,2013-12-08 18:10:00,
2013-12-09 05:16:00,57.8,55.5,29.83,West,270,0.0,0.0,92,0.00,,,0.00,Wunderground v.1.15,2013-12-08 18:16:00,
2013-12-09 05:21:00,57.9,55.6,29.83,West,270,0.0,0.0,92,0.00,,,0.00,Wunderground v.1.15,2013-12-08 18:21:00,
2013-12-09 05:26:00,58.0,55.7,29.83,West,271,0.0,0.0,92,0.00,,,0.00,Wunderground v.1.15,2013-12-08 18:26:00,
2013-12-09 05:32:00,58.1,55.8,29.83,West,270,0.0,0.0,92,0.00,,,0.00,Wunderground v.1.15,2013-12-08 18:32:00,
2013-12-09 05:37:00,58.2,55.9,29.83,West,270,0.0,0.0,92,0.00,,,0.00,Wunderground v.1.15,2013-12-08 18:37:00,
2013-12-09 05:42:00,58.3,56.0,29.83,West,270,0.0,0.0,92,0.00,,,0.00,Wunderground v.1.15,2013-12-08 18:42:00,
2013-12-09 05:48:00,58.3,55.7,29.83,West,271,0.0,0.0,91,0.00,,,0.00,Wunderground v.1.15,2013-12-08 18:48:00,
2013-12-09 05:53:00,58.4,56.1,29.82,West,270,0.0,0.0,92,0.00,,,0.00,Wunderground v.1.15,2013-12-08 18:53:00,
2013-12-09 05:59:00,58.6,56.3,29.83,West,271,0.0,0.0,92,0.00,,,0.00,Wunderground v.1.15,2013-12-08 18:59:00,
2013-12-09 06:04:00,58.7,56.1,29.83,West,271,0.0,0.0,91,0.00,,,0.00,Wunderground v.1.15,2013-12-08 19:04:00,
2013-12-09 06:09:00,58.8,56.2,29.83,West,271,0.0,0.0,91,0.00,,,0.00,Wunderground v.1.15,2013-12-08 19:09:00,
2013-12-09 06:20:00,58.6,56.3,29.83,North,-999,0.0,0.0,92,0.00,,,-99.99,WeatherLink 5.9.3,2013-12-08 19:20:00,
2013-12-09 06:26:00,59.2,56.6,29.82,West,270,0.0,0.0,91,0.00,,,0.00,Wunderground v.1.15,2013-12-08 19:26:00,
2013-12-09 06:32:00,59.3,56.7,29.82,West,270,0.0,0.0,91,0.00,,,0.00,Wunderground v.1.15,2013-12-08 19:32:00,
2013-12-09 06:37:00,59.5,56.9,29.82,West,271,0.0,0.0,91,0.00,,,0.00,Wunderground v.1.15,2013-12-08 19:37:00,
2013-12-09 06:42:00,59.9,57.3,29.82,West,270,0.0,0.0,91,0.00,,,0.00,Wunderground v.1.15,2013-12-08 19:42:00,
2013-12-09 06:48:00,60.3,57.7,29.83,West,271,0.0,0.0,91,0.00,,,0.00,Wunderground v.1.15,2013-12-08 19:48:00,
2013-12-09 07:00:00,59.7,57.1,29.82,North,-999,0.0,0.0,91,0.00,,,-99.99,WeatherLink 5.9.3,2013-12-08 20:00:00,
2013-12-09 07:06:00,61.8,57.9,29.83,West,268,0.0,0.0,87,0.00,,,0.00,Wunderground v.1.15,2013-12-08 20:06:00,
2013-12-09 07:12:00,62.0,58.1,29.83,West,267,0.0,0.0,87,0.00,,,0.00,Wunderground v.1.15,2013-12-08 20:12:00,
2013-12-09 07:17:00,62.1,57.9,29.83,SW,234,0.0,1.0,86,0.00,,,0.00,Wunderground v.1.15,2013-12-08 20:17:00,
2013-12-09 07:23:00,62.5,58.3,29.83,WSW,254,0.0,0.0,86,0.00,,,0.00,Wunderground v.1.15,2013-12-08 20:23:00,
2013-12-09 07:28:00,63.1,58.5,29.83,WSW,253,0.0,0.0,85,0.00,,,0.00,Wunderground v.1.15,2013-12-08 20:28:00,
2013-12-09 07:40:00,62.3,58.1,29.83,SW,225,0.0,1.0,86,0.00,,,-99.99,WeatherLink 5.9.3,2013-12-08 20:40:00,
2013-12-09 07:46:00,67.5,59.7,29.84,SSW,206,0.0,0.0,76,0.00,,,0.00,Wunderground v.1.15,2013-12-08 20:46:00,
2013-12-09 07:51:00,68.8,60.6,29.84,SSW,205,0.0,1.0,75,0.00,,,0.00,Wunderground v.1.15,2013-12-08 20:51:00,
2013-12-09 07:57:00,70.2,60.4,29.84,ENE,60,0.0,1.0,71,0.00,,,0.00,Wunderground v.1.15,2013-12-08 20:57:00,
2013-12-09 08:02:00,71.0,60.7,29.84,ESE,114,0.0,0.0,70,0.00,,,0.00,Wunderground v.1.15,2013-12-08 21:02:00,
2013-12-09 08:08:00,72.0,60.0,29.84,ENE,68,0.0,0.0,66,0.00,,,0.00,Wunderground v.1.15,2013-12-08 21:08:00,
2013-12-09 08:13:00,72.8,60.8,29.84,ENE,68,0.0,0.0,66,0.00,,,0.00,Wunderground v.1.15,2013-12-08 21:13:00,
2013-12-09 08:19:00,73.5,61.4,29.83,ENE,68,0.0,0.0,66,0.00,,,0.00,Wunderground v.1.15,2013-12-08 21:19:00,
2013-12-09 08:24:00,74.8,61.8,29.83,SSE,160,0.0,0.0,64,0.00,,,0.00,Wunderground v.1.15,2013-12-08 21:24:00,
2013-12-09 08:40:00,74.1,61.6,29.83,North,-999,0.0,0.0,65,0.00,,,-99.99,WeatherLink 5.9.3,2013-12-08 21:40:00,
2013-12-09 08:46:00,77.6,62.6,29.83,North,349,0.0,0.0,60,0.00,,,0.00,Wunderground v.1.15,2013-12-08 21:46:00,
2013-12-09 08:52:00,79.0,62.5,29.83,NNW,328,0.0,1.0,57,0.00,,,0.00,Wunderground v.1.15,2013-12-08 21:52:00,
2013-12-09 08:57:00,79.2,60.6,29.83,NW,326,1.0,1.0,53,0.00,,,0.00,Wunderground v.1.15,2013-12-08 21:57:00,
2013-12-09 09:03:00,79.7,62.1,29.83,NE,34,1.0,2.0,55,0.00,,,0.00,Wunderground v.1.15,2013-12-08 22:03:00,
2013-12-09 09:08:00,80.1,63.5,29.83,West,281,1.0,2.0,57,0.00,,,0.00,Wunderground v.1.15,2013-12-08 22:08:00,
2013-12-09 09:13:00,80.0,62.4,29.83,WNW,292,1.0,1.0,55,0.00,,,0.00,Wunderground v.1.15,2013-12-08 22:13:00,
2013-12-09 09:19:00,80.4,63.8,29.82,NNE,31,1.0,2.0,57,0.00,,,0.00,Wunderground v.1.15,2013-12-08 22:19:00,
2013-12-09 09:25:00,80.7,62.5,29.82,NNE,20,1.0,2.0,54,0.00,,,0.00,Wunderground v.1.15,2013-12-08 22:25:00,
2013-12-09 09:40:00,80.4,63.3,29.82,NE,45,1.0,4.0,56,0.00,,,-99.99,WeatherLink 5.9.3,2013-12-08 22:40:00,
2013-12-09 09:46:00,84.2,65.2,29.81,NNW,336,1.0,1.0,53,0.00,,,0.00,Wunderground v.1.15,2013-12-08 22:46:00,
2013-12-09 09:51:00,85.4,62.9,29.81,NW,311,1.0,1.0,47,0.00,,,0.00,Wunderground v.1.15,2013-12-08 22:51:00,
2013-12-09 09:56:00,86.2,61.1,29.81,West,277,1.0,4.0,43,0.00,,,0.00,Wunderground v.1.15,2013-12-08 22:56:00,
2013-12-09 10:11:00,85.4,62.9,29.81,NW,315,1.0,5.0,47,0.00,,,-99.99,WeatherLink 5.9.3,2013-12-08 23:11:00,
2013-12-09 10:16:00,88.6,59.0,29.80,NNW,331,3.0,5.0,37,0.00,,,0.00,Wunderground v.1.15,2013-12-08 23:16:00,
2013-12-09 10:21:00,89.7,60.7,29.80,WNW,293,2.0,2.0,38,0.00,,,0.00,Wunderground v.1.15,2013-12-08 23:21:00,
2013-12-09 10:27:00,89.1,57.9,29.80,NNW,338,2.0,6.0,35,0.00,,,0.00,Wunderground v.1.15,2013-12-08 23:27:00,
2013-12-09 10:32:00,89.3,59.6,29.80,NW,309,3.0,5.0,37,0.00,,,0.00,Wunderground v.1.15,2013-12-08 23:32:00,
2013-12-09 10:38:00,90.3,58.1,29.79,NW,313,2.0,5.0,34,0.00,,,0.00,Wunderground v.1.15,2013-12-08 23:38:00,
2013-12-09 10:51:00,89.2,58.8,29.80,WNW,292,2.0,9.0,36,0.00,,,-99.99,WeatherLink 5.9.3,2013-12-08 23:51:00,
2013-12-09 10:56:00,89.0,57.8,29.79,SE,127,2.0,5.0,35,0.00,,,0.00,Wunderground v.1.15,2013-12-08 23:56:00,
2013-12-09 11:01:00,89.4,57.3,29.79,NNE,13,2.0,2.0,34,0.00,,,0.00,Wunderground v.1.15,2013-12-09 00:01:00,
2013-12-09 11:06:00,89.3,56.4,29.78,NW,320,2.0,4.0,33,0.00,,,0.00,Wunderground v.1.15,2013-12-09 00:06:00,
2013-12-09 11:12:00,89.0,57.8,29.78,NNE,13,3.0,5.0,35,0.00,,,0.00,Wunderground v.1.15,2013-12-09 00:12:00,
2013-12-09 11:17:00,89.4,56.5,29.78,WNW,298,3.0,5.0,33,0.00,,,0.00,Wunderground v.1.15,2013-12-09 00:17:00,
2013-12-09 11:23:00,89.7,58.4,29.78,WNW,300,2.0,4.0,35,0.00,,,0.00,Wunderground v.1.15,2013-12-09 00:23:00,
2013-12-09 11:28:00,89.8,57.7,29.77,North,6,3.0,7.0,34,0.00,,,0.00,Wunderground v.1.15,2013-12-09 00:28:00,
2013-12-09 11:34:00,90.9,60.3,29.77,NW,314,3.0,5.0,36,0.00,,,0.00,Wunderground v.1.15,2013-12-09 00:34:00,
2013-12-09 11:39:00,90.9,57.0,29.77,WNW,293,4.0,6.0,32,0.00,,,0.00,Wunderground v.1.15,2013-12-09 00:39:00,
2013-12-09 11:45:00,91.0,57.9,29.77,NNE,12,3.0,4.0,33,0.00,,,0.00,Wunderground v.1.15,2013-12-09 00:45:00,
2013-12-09 11:50:00,90.7,56.8,29.77,NW,315,3.0,10.0,32,0.00,,,-99.99,WeatherLink 5.9.3,2013-12-09 00:50:00,
2013-12-09 11:56:00,90.1,57.1,29.76,WNW,283,2.0,6.0,33,0.00,,,0.00,Wunderground v.1.15,2013-12-09 00:56:00,
2013-12-09 12:01:00,90.0,58.7,29.76,West,264,2.0,2.0,35,0.00,,,0.00,Wunderground v.1.15,2013-12-09 01:01:00,
2013-12-09 12:06:00,90.3,58.9,29.76,WSW,251,2.0,8.0,35,0.00,,,0.00,Wunderground v.1.15,2013-12-09 01:06:00,
2013-12-09 12:12:00,89.9,58.6,29.75,WNW,290,3.0,6.0,35,0.00,,,0.00,Wunderground v.1.15,2013-12-09 01:12:00,
2013-12-09 12:17:00,89.8,57.7,29.75,NNW,345,3.0,6.0,34,0.00,,,0.00,Wunderground v.1.15,2013-12-09 01:17:00,
2013-12-09 12:30:00,90.0,57.0,29.75,WNW,292,3.0,8.0,33,0.00,,,-99.99,WeatherLink 5.9.3,2013-12-09 01:30:00,
2013-12-09 12:36:00,91.5,61.6,29.74,NNW,342,4.0,7.0,37,0.00,,,0.00,Wunderground v.1.15,2013-12-09 01:36:00,
2013-12-09 12:41:00,92.5,60.9,29.73,WNW,299,3.0,3.0,35,0.00,,,0.00,Wunderground v.1.15,2013-12-09 01:41:00,
2013-12-09 12:46:00,93.4,62.5,29.73,WNW,284,3.0,5.0,36,0.00,,,0.00,Wunderground v.1.15,2013-12-09 01:46:00,
2013-12-09 12:52:00,93.9,62.1,29.72,NNW,330,3.0,4.0,35,0.00,,,0.00,Wunderground v.1.15,2013-12-09 01:52:00,
2013-12-09 12:57:00,94.1,61.4,29.72,NW,322,3.0,5.0,34,0.00,,,0.00,Wunderground v.1.15,2013-12-09 01:57:00,
2013-12-09 13:03:00,93.9,59.6,29.71,NE,41,4.0,4.0,32,0.00,,,0.00,Wunderground v.1.15,2013-12-09 02:03:00,
2013-12-09 13:08:00,93.9,57.8,29.70,NNW,335,4.0,5.0,30,0.00,,,0.00,Wunderground v.1.15,2013-12-09 02:08:00,
2013-12-09 13:13:00,94.8,58.5,29.70,NNW,329,3.0,4.0,30,0.00,,,0.00,Wunderground v.1.15,2013-12-09 02:13:00,
2013-12-09 13:19:00,95.4,60.0,29.70,WNW,290,2.0,4.0,31,0.00,,,0.00,Wunderground v.1.15,2013-12-09 02:19:00,
2013-12-09 13:24:00,94.9,56.7,29.70,NW,318,3.0,9.0,28,0.00,,,0.00,Wunderground v.1.15,2013-12-09 02:24:00,
2013-12-09 13:30:00,95.3,59.0,29.70,NW,315,3.0,9.0,30,0.00,,,-99.99,WeatherLink 5.9.3,2013-12-09 02:30:00,
2013-12-09 13:36:00,95.3,59.0,29.69,NNW,339,3.0,4.0,30,0.00,,,0.00,Wunderground v.1.15,2013-12-09 02:36:00,
2013-12-09 13:50:00,95.1,57.8,29.69,NW,315,2.0,9.0,29,0.00,,,-99.99,WeatherLink 5.9.3,2013-12-09 02:50:00,
2013-12-09 13:56:00,95.5,58.2,29.68,NW,320,3.0,4.0,29,0.00,,,0.00,Wunderground v.1.15,2013-12-09 02:56:00,
2013-12-09 14:01:00,95.5,59.1,29.68,NNW,340,3.0,3.0,30,0.00,,,0.00,Wunderground v.1.15,2013-12-09 03:01:00,
2013-12-09 14:07:00,96.3,58.9,29.68,NNW,335,3.0,3.0,29,0.00,,,0.00,Wunderground v.1.15,2013-12-09 03:07:00,
2013-12-09 14:12:00,96.5,57.1,29.67,NNE,30,3.0,6.0,27,0.00,,,0.00,Wunderground v.1.15,2013-12-09 03:12:00,
2013-12-09 14:17:00,96.8,57.3,29.67,WNW,290,3.0,6.0,27,0.00,,,0.00,Wunderground v.1.15,2013-12-09 03:17:00,
2013-12-09 14:23:00,96.7,56.2,29.67,NW,318,3.0,7.0,26,0.00,,,0.00,Wunderground v.1.15,2013-12-09 03:23:00,
2013-12-09 14:28:00,96.8,57.3,29.67,NW,316,3.0,7.0,27,0.00,,,0.00,Wunderground v.1.15,2013-12-09 03:28:00,
2013-12-09 14:41:00,96.8,56.3,29.67,NW,315,3.0,10.0,26,0.00,,,-99.99,WeatherLink 5.9.3,2013-12-09 03:41:00,
2013-12-09 14:46:00,96.9,57.4,29.66,NNW,332,4.0,4.0,27,0.00,,,0.00,Wunderground v.1.15,2013-12-09 03:46:00,
2013-12-09 14:51:00,96.6,57.1,29.66,WNW,294,3.0,6.0,27,0.00,,,0.00,Wunderground v.1.15,2013-12-09 03:51:00,
2013-12-09 14:57:00,96.5,57.1,29.66,WNW,283,4.0,10.0,27,0.00,,,0.00,Wunderground v.1.15,2013-12-09 03:57:00,
2013-12-09 15:02:00,96.3,53.6,29.65,NNE,27,4.0,5.0,24,0.00,,,0.00,Wunderground v.1.15,2013-12-09 04:02:00,
2013-12-09 15:07:00,96.8,54.1,29.65,WNW,298,3.0,5.0,24,0.00,,,0.00,Wunderground v.1.15,2013-12-09 04:07:00,
2013-12-09 15:13:00,97.2,56.6,29.65,NE,44,3.0,3.0,26,0.00,,,0.00,Wunderground v.1.15,2013-12-09 04:13:00,
2013-12-09 15:18:00,97.5,55.8,29.64,NW,326,3.0,3.0,25,0.00,,,0.00,Wunderground v.1.15,2013-12-09 04:18:00,
2013-12-09 15:23:00,97.5,59.9,29.65,NW,311,3.0,3.0,29,0.00,,,0.00,Wunderground v.1.15,2013-12-09 04:23:00,
2013-12-09 15:29:00,97.4,55.7,29.64,North,4,3.0,7.0,25,0.00,,,0.00,Wunderground v.1.15,2013-12-09 04:29:00,
2013-12-09 15:41:00,97.5,56.9,29.65,NW,315,3.0,8.0,26,0.00,,,-99.99,WeatherLink 5.9.3,2013-12-09 04:41:00,
2013-12-09 15:46:00,97.0,56.4,29.63,WNW,287,3.0,5.0,26,0.00,,,0.00,Wunderground v.1.15,2013-12-09 04:46:00,
2013-12-09 15:51:00,96.9,54.1,29.63,WNW,285,3.0,3.0,24,0.00,,,0.00,Wunderground v.1.15,2013-12-09 04:51:00,
2013-12-09 15:56:00,96.6,53.9,29.63,NW,313,3.0,5.0,24,0.00,,,0.00,Wunderground v.1.15,2013-12-09 04:56:00,
2013-12-09 16:50:00,96.9,54.1,29.63,NW,315,3.0,6.0,24,0.00,,,-99.99,WeatherLink 6.0.3,2013-12-09 05:50:00,
2013-12-09 16:55:00,96.6,53.9,29.63,WNW,292,3.0,9.0,24,0.00,,,-99.99,WeatherLink 6.0.3,2013-12-09 05:55:00,
2013-12-09 17:00:00,96.2,53.6,29.63,NNE,22,2.0,7.0,24,0.00,,,-99.99,WeatherLink 6.0.3,2013-12-09 06:00:00,
2013-12-09 17:05:00,95.8,53.2,29.62,NW,315,2.0,6.0,24,0.00,,,-99.99,WeatherLink 6.0.3,2013-12-09 06:05:00,
2013-12-09 17:10:00,95.0,53.7,29.62,NW,315,2.0,5.0,25,0.00,,,-99.99,WeatherLink 6.0.3,2013-12-09 06:10:00,
2013-12-09 17:15:00,94.3,53.1,29.62,NNE,22,1.0,3.0,25,0.00,,,-99.99,WeatherLink 6.0.3,2013-12-09 06:15:00,
2013-12-09 17:20:00,93.6,51.4,29.62,NW,315,1.0,5.0,24,0.00,,,-99.99,WeatherLink 6.0.3,2013-12-09 06:20:00,
2013-12-09 17:25:00,93.1,52.1,29.62,NNW,337,2.0,6.0,25,0.00,,,-99.99,WeatherLink 6.0.3,2013-12-09 06:25:00,
2013-12-09 17:30:00,93.0,53.0,29.62,NW,315,1.0,4.0,26,0.00,,,-99.99,WeatherLink 6.0.3,2013-12-09 06:30:00,
2013-12-09 17:35:00,92.8,52.9,29.61,NW,315,1.0,2.0,26,0.00,,,-99.99,WeatherLink 6.0.3,2013-12-09 06:35:00,
2013-12-09 17:40:00,92.6,53.7,29.61,NNE,22,2.0,4.0,27,0.00,,,-99.99,WeatherLink 6.0.3,2013-12-09 06:40:00,
2013-12-09 17:45:00,92.6,54.7,29.61,NNE,22,3.0,6.0,28,0.00,,,-99.99,WeatherLink 6.0.3,2013-12-09 06:45:00,
2013-12-09 17:50:00,92.6,55.7,29.60,NNE,22,3.0,5.0,29,0.00,,,-99.99,WeatherLink 6.0.3,2013-12-09 06:50:00,
2013-12-09 17:55:00,92.4,54.6,29.60,NNE,22,2.0,5.0,28,0.00,,,-99.99,WeatherLink 6.0.3,2013-12-09 06:55:00,
2013-12-09 18:00:00,92.2,53.4,29.60,NNE,22,3.0,6.0,27,0.00,,,-99.99,WeatherLink 6.0.3,2013-12-09 07:00:00,
2013-12-09 18:05:00,92.0,54.2,29.60,NNE,22,2.0,4.0,28,0.00,,,-99.99,WeatherLink 6.0.3,2013-12-09 07:05:00,
2013-12-09 18:10:00,91.8,55.0,29.60,NNE,22,2.0,4.0,29,0.00,,,-99.99,WeatherLink 6.0.3,2013-12-09 07:10:00,
2013-12-09 18:15:00,91.7,54.0,29.60,NNE,22,3.0,6.0,28,0.00,,,-99.99,WeatherLink 6.0.3,2013-12-09 07:15:00,
2013-12-09 18:20:00,91.6,54.8,29.60,NNE,22,2.0,3.0,29,0.00,,,-99.99,WeatherLink 6.0.3,2013-12-09 07:20:00,
2013-12-09 18:25:00,91.5,53.8,29.59,NNE,22,2.0,6.0,28,0.00,,,-99.99,WeatherLink 6.0.3,2013-12-09 07:25:00,
2013-12-09 18:30:00,91.3,54.6,29.59,NNE,22,2.0,5.0,29,0.00,,,-99.99,WeatherLink 6.0.3,2013-12-09 07:30:00,
2013-12-09 18:35:00,91.1,54.4,29.59,NNE,22,2.0,5.0,29,0.00,,,-99.99,WeatherLink 6.0.3,2013-12-09 07:35:00,
2013-12-09 18:40:00,90.9,55.2,29.59,NNE,22,2.0,4.0,30,0.00,,,-99.99,WeatherLink 6.0.3,2013-12-09 07:40:00,
2013-12-09 18:45:00,90.6,55.8,29.59,NNE,22,2.0,4.0,31,0.00,,,-99.99,WeatherLink 6.0.3,2013-12-09 07:45:00,
2013-12-09 18:50:00,90.3,55.6,29.59,NNE,22,1.0,3.0,31,0.00,,,-99.99,WeatherLink 6.0.3,2013-12-09 07:50:00,
2013-12-09 18:55:00,90.0,56.2,29.59,NE,45,1.0,2.0,32,0.00,,,-99.99,WeatherLink 6.0.3,2013-12-09 07:55:00,
2013-12-09 19:00:00,89.8,56.0,29.60,NNE,22,1.0,2.0,32,0.00,,,-99.99,WeatherLink 6.0.3,2013-12-09 08:00:00,
2013-12-09 19:05:00,89.7,56.8,29.60,NNE,22,1.0,3.0,33,0.00,,,-99.99,WeatherLink 6.0.3,2013-12-09 08:05:00,
2013-12-09 19:10:00,89.6,56.7,29.59,NNE,22,2.0,4.0,33,0.00,,,-99.99,WeatherLink 6.0.3,2013-12-09 08:10:00,
2013-12-09 19:15:00,89.4,57.3,29.59,NNE,22,2.0,4.0,34,0.00,,,-99.99,WeatherLink 6.0.3,2013-12-09 08:15:00,
2013-12-09 19:20:00,89.3,56.4,29.59,NNE,22,2.0,3.0,33,0.00,,,-99.99,WeatherLink 6.0.3,2013-12-09 08:20:00,
2013-12-09 19:25:00,89.2,57.2,29.59,NNE,22,2.0,5.0,34,0.00,,,-99.99,WeatherLink 6.0.3,2013-12-09 08:25:00,
2013-12-09 19:30:00,89.1,57.1,29.59,NNE,22,2.0,4.0,34,0.00,,,-99.99,WeatherLink 6.0.3,2013-12-09 08:30:00,
2013-12-09 19:35:00,89.0,57.0,29.59,NNE,22,1.0,4.0,34,0.00,,,-99.99,WeatherLink 6.0.3,2013-12-09 08:35:00,
2013-12-09 19:40:00,89.0,57.0,29.60,NNE,22,2.0,4.0,34,0.00,,,-99.99,WeatherLink 6.0.3,2013-12-09 08:40:00,
2013-12-09 19:45:00,89.0,56.2,29.60,NNE,22,2.0,4.0,33,0.00,,,-99.99,WeatherLink 6.0.3,2013-12-09 08:45:00,
2013-12-09 19:50:00,89.0,57.0,29.60,NNE,22,1.0,2.0,34,0.00,,,-99.99,WeatherLink 6.0.3,2013-12-09 08:50:00,
2013-12-09 19:55:00,88.8,57.6,29.60,NNE,22,1.0,2.0,35,0.00,,,-99.99,WeatherLink 6.0.3,2013-12-09 08:55:00,
2013-12-09 20:00:00,88.6,57.4,29.59,NNE,22,0.0,2.0,35,0.00,,,-99.99,WeatherLink 6.0.3,2013-12-09 09:00:00,
2013-12-09 20:05:00,88.5,58.1,29.59,NE,45,1.0,2.0,36,0.00,,,-99.99,WeatherLink 6.0.3,2013-12-09 09:05:00,
2013-12-09 20:10:00,88.3,58.0,29.60,NE,45,0.0,2.0,36,0.00,,,-99.99,WeatherLink 6.0.3,2013-12-09 09:10:00,
2013-12-09 20:15:00,88.0,58.5,29.60,NE,45,0.0,2.0,37,0.00,,,-99.99,WeatherLink 6.0.3,2013-12-09 09:15:00,
2013-12-09 20:20:00,87.7,57.4,29.59,NE,45,0.0,1.0,36,0.00,,,-99.99,WeatherLink 6.0.3,2013-12-09 09:20:00,
2013-12-09 20:24:00,83.6,60.6,29.59,NE,52,0.0,0.0,46,0.00,,,0.00,Wunderground v.1.15,2013-12-09 09:24:00,
2013-12-09 20:25:00,83.6,60.6,29.59,NNE,27,0.0,1.0,46,0.00,,,0.00,Wunderground v.1.15,2013-12-09 09:25:00,
2013-12-09 20:30:00,87.0,57.6,29.59,NE,45,0.0,1.0,37,0.00,,,-99.99,WeatherLink 6.0.3,2013-12-09 09:30:00,
2013-12-09 20:32:00,87.4,57.9,29.59,NE,45,0.0,1.0,37,0.00,,,-99.99,WeatherLink 6.0.3,2013-12-09 09:32:00,
2013-12-09 20:35:00,86.7,59.5,29.59,North,-999,0.0,0.0,40,0.00,,,-99.99,WeatherLink 6.0.3,2013-12-09 09:35:00,
2013-12-09 20:40:00,86.0,59.6,29.59,North,-999,0.0,0.0,41,0.00,,,-99.99,WeatherLink 6.0.3,2013-12-09 09:40:00,
2013-12-09 20:45:00,85.3,58.9,29.59,North,-999,0.0,0.0,41,0.00,,,-99.99,WeatherLink 6.0.3,2013-12-09 09:45:00,
2013-12-09 20:50:00,84.6,58.3,29.59,North,-999,0.0,0.0,41,0.00,,,-99.99,WeatherLink 6.0.3,2013-12-09 09:50:00,
2013-12-09 20:55:00,83.9,60.3,29.59,North,-999,0.0,0.0,45,0.00,,,-99.99,WeatherLink 6.0.3,2013-12-09 09:55:00,
2013-12-09 21:00:00,83.3,61.0,29.59,North,-999,0.0,0.0,47,0.00,,,-99.99,WeatherLink 6.0.3,2013-12-09 10:00:00,
2013-12-09 21:05:00,82.8,61.7,29.59,North,-999,0.0,0.0,49,0.00,,,-99.99,WeatherLink 6.0.3,2013-12-09 10:05:00,
2013-12-09 21:10:00,82.7,60.4,29.59,ENE,67,0.0,1.0,47,0.00,,,-99.99,WeatherLink 6.0.3,2013-12-09 10:10:00,
2013-12-09 21:21:00,83.2,59.6,29.59,ENE,67,0.0,1.0,45,0.00,,,-99.99,WeatherLink 6.0.3,2013-12-09 10:21:00,
2013-12-09 21:26:00,81.1,62.9,29.61,East,82,0.0,7.0,54,0.00,,,0.00,Wunderground v.1.15,2013-12-09 10:26:00,
2013-12-09 21:31:00,80.7,63.5,29.61,East,82,0.0,0.0,56,0.00,,,0.00,Wunderground v.1.15,2013-12-09 10:31:00,
2013-12-09 21:39:00,80.1,63.5,29.62,East,82,0.0,0.0,57,0.00,,,0.00,Wunderground v.1.15,2013-12-09 10:39:00,
2013-12-09 21:45:00,79.7,64.1,29.62,East,82,0.0,0.0,59,0.00,,,0.00,Wunderground v.1.15,2013-12-09 10:45:00,
2013-12-09 21:50:00,79.3,64.2,29.62,East,81,0.0,1.0,60,0.00,,,0.00,Wunderground v.1.15,2013-12-09 10:50:00,
2013-12-09 21:55:00,78.8,63.3,29.62,East,82,0.0,1.0,59,0.00,,,0.00,Wunderground v.1.15,2013-12-09 10:55:00,
2013-12-09 22:00:00,78.6,64.0,29.62,East,82,0.0,0.0,61,0.00,,,0.00,Wunderground v.1.15,2013-12-09 11:00:00,
2013-12-09 22:01:00,78.5,64.4,29.62,East,82,0.0,1.0,62,0.00,,,0.00,Wunderground v.1.15,2013-12-09 11:01:00,
2013-12-09 22:06:00,78.4,64.8,29.62,East,82,0.0,1.0,63,0.00,,,0.00,Wunderground v.1.15,2013-12-09 11:06:00,
2013-12-09 22:11:00,79.9,63.8,29.62,North,-999,0.0,0.0,58,0.00,,,-99.99,WeatherLink 6.0.3,2013-12-09 11:11:00,
2013-12-09 22:17:00,78.5,63.9,29.61,East,82,0.0,0.0,61,0.00,,,0.00,Wunderground v.1.15,2013-12-09 11:17:00,
2013-12-09 22:22:00,78.5,63.5,29.61,East,82,0.0,0.0,60,0.00,,,0.00,Wunderground v.1.15,2013-12-09 11:22:00,
2013-12-09 22:27:00,78.5,63.5,29.61,East,89,0.0,1.0,60,0.00,,,0.00,Wunderground v.1.15,2013-12-09 11:27:00,
2013-12-09 22:32:00,78.5,63.9,29.61,East,89,0.0,1.0,61,0.00,,,0.00,Wunderground v.1.15,2013-12-09 11:32:00,
2013-12-09 22:38:00,78.3,64.2,29.61,WNW,294,0.0,1.0,62,0.00,,,0.00,Wunderground v.1.15,2013-12-09 11:38:00,
2013-12-09 22:43:00,78.1,64.0,29.61,WNW,294,0.0,0.0,62,0.00,,,0.00,Wunderground v.1.15,2013-12-09 11:43:00,
2013-12-09 22:49:00,78.0,64.4,29.61,NNE,32,0.0,0.0,63,0.00,,,0.00,Wunderground v.1.15,2013-12-09 11:49:00,
2013-12-09 22:54:00,77.7,64.5,29.61,NNE,17,0.0,0.0,64,0.00,,,0.00,Wunderground v.1.15,2013-12-09 11:54:00,
2013-12-09 22:59:00,77.5,63.9,29.61,NNE,17,0.0,0.0,63,0.00,,,0.00,Wunderground v.1.15,2013-12-09 11:59:00,
2013-12-09 23:04:00,77.5,64.4,29.61,NNE,17,0.0,0.0,64,0.00,,,0.00,Wunderground v.1.15,2013-12-09 12:04:00,
2013-12-09 23:09:00,77.3,64.6,29.61,NNE,17,0.0,0.0,65,0.00,,,0.00,Wunderground v.1.15,2013-12-09 12:09:00,
2013-12-09 23:14:00,77.1,64.4,29.61,NNE,17,0.0,0.0,65,0.00,,,0.00,Wunderground v.1.15,2013-12-09 12:14:00,
2013-12-09 23:19:00,76.8,64.1,29.61,NNE,17,0.0,0.0,65,0.00,,,0.00,Wunderground v.1.15,2013-12-09 12:19:00,
2013-12-09 23:24:00,76.5,64.7,29.61,NNE,17,0.0,0.0,67,0.00,,,0.00,Wunderground v.1.15,2013-12-09 12:24:00,
2013-12-09 23:29:00,76.2,64.0,29.61,NNW,333,0.0,2.0,66,0.00,,,0.00,Wunderground v.1.15,2013-12-09 12:29:00,
2013-12-09 23:34:00,76.2,64.4,29.61,NE,38,0.0,0.0,67,0.00,,,0.00,Wunderground v.1.15,2013-12-09 12:34:00,
2013-12-09 23:39:00,76.2,64.0,29.61,WSW,255,0.0,1.0,66,0.00,,,0.00,Wunderground v.1.15,2013-12-09 12:39:00,
2013-12-09 23:44:00,76.5,63.4,29.61,NNW,345,0.0,1.0,64,0.00,,,0.00,Wunderground v.1.15,2013-12-09 12:44:00,
2013-12-09 23:49:00,76.9,64.2,29.61,NW,325,0.0,1.0,65,0.00,,,0.00,Wunderground v.1.15,2013-12-09 12:49:00,
2013-12-09 23:54:00,77.4,61.9,29.61,NNW,331,3.0,7.0,59,0.00,,,0.00,Wunderground v.1.15,2013-12-09 12:54:00,
2013-12-09 23:59:00,79.2,61.1,29.62,WNW,285,5.0,7.0,54,0.00,,,0.00,Wunderground v.1.15,2013-12-09 12:59:00,